Olpe, KS (66865)

8:08 PM CDT on March 22, 2017 (GMT -0500)
Emporia Municipal | | Change Station

Elev 1207 ft 38.33 °N, 96.19 °W | Updated 15 minutes ago

Overcast
Overcast
55 °F
Feels Like 55 °F
N
14
Wind Variable Wind from ESE

Today
High -- | Low -- °F
--% Chance of Precip.
Yesterday
High -- | Low -- °F
Precip. -- in
Pressure 30.15 in
Visibility 10.0 miles
Clouds Overcast 3700 ft
Dew Point 31 °F
Humidity 40%
Rainfall 0.00 in
Snow Depth Not available.
7:24 AM 7:38 PM
Waning Crescent, 28% visible
METAR KEMP 230053Z AUTO 12012KT 10SM OVC037 13/M01 A3014 RMK AO2 SLP210 T01281006
Pressure 30.15 in
Visibility 10.0 miles
Clouds Overcast 3700 ft
Dew Point 31 °F
Humidity 40%
Rainfall 0.00 in
Snow Depth Not available.
7:24 AM 7:38 PM
Waning Crescent, 28% visible
METAR KEMP 230053Z AUTO 12012KT 10SM OVC037 13/M01 A3014 RMK AO2 SLP210 T01281006

Get Severe Weather Alerts

Thanks for signing up!

Be on the lookout for a verification email in your inbox.

You'll start receiving the daily forecast at 8 AM.

×

10-Day Weather Forecast

Almanac

Astronomy

Mar. 22, 2017 Rise Set
Actual Time
Civil Twilight
Nautical Twilight
Astronomical Twilight
Moon
Length of Visible Light
Length of Day
Tomorrow will be .
, % of the Moon is Illuminated

Today's Extremes

State Highs State Lows

Community

WunderPhotos

Upload Photos

1,962,540 photos uploaded!

WunderBlog® & News

Nearby

Air Quality

  Air Quality AQ Index Pollutant
Not available.

Snow Depth

Station Depth Elevation

Earthquake Activity

City Distance Mag. Time & Date
Minimum magnitude displayed is 2.5.

Earthquake Activity

City Distance Mag. Time & Date
Minimum magnitude displayed is 2.5.

Coastal Water Temperatures

Place Temperature

Stations

Nearby Weather Stations

Station Location Temp. Windchill Dew Point Humidity Wind Precip. Elev Updated Type
                   

Watches & Warnings

There are currently no watches in effect.